sensor_id;sensor_type;location;lat;lon;timestamp;temperature;humidity
67354;SHT30;54238;52.278;21.056;2023-04-06T00:00:00;3.79;50.11
67354;SHT30;54238;52.278;21.056;2023-04-06T00:02:27;3.78;49.93
67354;SHT30;54238;52.278;21.056;2023-04-06T00:04:57;3.80;49.81
67354;SHT30;54238;52.278;21.056;2023-04-06T00:07:29;3.79;49.77
67354;SHT30;54238;52.278;21.056;2023-04-06T00:09:57;3.78;49.78
67354;SHT30;54238;52.278;21.056;2023-04-06T00:15:21;3.80;49.55
67354;SHT30;54238;52.278;21.056;2023-04-06T00:17:51;3.83;49.51
67354;SHT30;54238;52.278;21.056;2023-04-06T00:20:22;3.80;49.70
67354;SHT30;54238;52.278;21.056;2023-04-06T00:25:25;3.82;49.67
67354;SHT30;54238;52.278;21.056;2023-04-06T00:27:57;3.81;49.96
67354;SHT30;54238;52.278;21.056;2023-04-06T00:30:27;3.80;49.88
67354;SHT30;54238;52.278;21.056;2023-04-06T00:32:56;3.78;49.88
67354;SHT30;54238;52.278;21.056;2023-04-06T00:35:23;3.79;49.83
67354;SHT30;54238;52.278;21.056;2023-04-06T00:37:53;3.77;49.81
67354;SHT30;54238;52.278;21.056;2023-04-06T00:40:29;3.77;49.94
67354;SHT30;54238;52.278;21.056;2023-04-06T00:43:04;3.74;50.12
67354;SHT30;54238;52.278;21.056;2023-04-06T00:45:39;3.74;50.08
67354;SHT30;54238;52.278;21.056;2023-04-06T00:48:10;3.72;49.98
67354;SHT30;54238;52.278;21.056;2023-04-06T00:50:39;3.72;49.90
67354;SHT30;54238;52.278;21.056;2023-04-06T00:53:09;3.73;49.86
67354;SHT30;54238;52.278;21.056;2023-04-06T00:55:41;3.77;49.76
67354;SHT30;54238;52.278;21.056;2023-04-06T00:58:13;3.77;50.07
67354;SHT30;54238;52.278;21.056;2023-04-06T01:00:40;3.79;49.97
67354;SHT30;54238;52.278;21.056;2023-04-06T01:03:07;3.83;49.81
67354;SHT30;54238;52.278;21.056;2023-04-06T01:05:37;3.85;49.93
67354;SHT30;54238;52.278;21.056;2023-04-06T01:08:07;3.88;49.98
67354;SHT30;54238;52.278;21.056;2023-04-06T01:10:34;3.94;49.70
67354;SHT30;54238;52.278;21.056;2023-04-06T01:13:02;3.99;49.63
67354;SHT30;54238;52.278;21.056;2023-04-06T01:15:32;4.01;49.70
67354;SHT30;54238;52.278;21.056;2023-04-06T01:18:02;4.06;49.55
67354;SHT30;54238;52.278;21.056;2023-04-06T01:20:34;4.07;49.49
67354;SHT30;54238;52.278;21.056;2023-04-06T01:23:03;4.07;49.55
67354;SHT30;54238;52.278;21.056;2023-04-06T01:25:35;4.05;49.67
67354;SHT30;54238;52.278;21.056;2023-04-06T01:28:06;4.07;49.57
67354;SHT30;54238;52.278;21.056;2023-04-06T01:30:36;4.09;49.47
67354;SHT30;54238;52.278;21.056;2023-04-06T01:33:06;4.11;49.56
67354;SHT30;54238;52.278;21.056;2023-04-06T01:35:37;4.12;49.52
67354;SHT30;54238;52.278;21.056;2023-04-06T01:38:04;4.14;49.49
67354;SHT30;54238;52.278;21.056;2023-04-06T01:40:32;4.14;49.57
67354;SHT30;54238;52.278;21.056;2023-04-06T01:43:01;4.13;49.50
67354;SHT30;54238;52.278;21.056;2023-04-06T01:45:28;4.08;49.51
67354;SHT30;54238;52.278;21.056;2023-04-06T01:47:58;4.11;49.57
67354;SHT30;54238;52.278;21.056;2023-04-06T01:50:29;4.12;49.47
67354;SHT30;54238;52.278;21.056;2023-04-06T01:52:59;4.14;49.55
67354;SHT30;54238;52.278;21.056;2023-04-06T01:55:28;4.16;49.51
67354;SHT30;54238;52.278;21.056;2023-04-06T01:57:55;4.17;49.69
67354;SHT30;54238;52.278;21.056;2023-04-06T02:00:25;4.18;49.74
67354;SHT30;54238;52.278;21.056;2023-04-06T02:02:57;4.18;49.70
67354;SHT30;54238;52.278;21.056;2023-04-06T02:05:27;4.19;49.63
67354;SHT30;54238;52.278;21.056;2023-04-06T02:08:01;4.21;49.77
67354;SHT30;54238;52.278;21.056;2023-04-06T02:10:28;4.21;49.89
67354;SHT30;54238;52.278;21.056;2023-04-06T02:12:57;4.22;49.83
67354;SHT30;54238;52.278;21.056;2023-04-06T02:15:27;4.24;49.93
67354;SHT30;54238;52.278;21.056;2023-04-06T02:17:54;4.21;50.14
67354;SHT30;54238;52.278;21.056;2023-04-06T02:20:21;4.20;50.22
67354;SHT30;54238;52.278;21.056;2023-04-06T02:22:50;4.19;50.29
67354;SHT30;54238;52.278;21.056;2023-04-06T02:25:17;4.18;50.44
67354;SHT30;54238;52.278;21.056;2023-04-06T02:27:47;4.17;50.51
67354;SHT30;54238;52.278;21.056;2023-04-06T02:30:14;4.16;50.60
67354;SHT30;54238;52.278;21.056;2023-04-06T02:32:41;4.15;50.64
67354;SHT30;54238;52.278;21.056;2023-04-06T02:35:09;4.13;50.74
67354;SHT30;54238;52.278;21.056;2023-04-06T02:37:36;4.13;50.94
67354;SHT30;54238;52.278;21.056;2023-04-06T02:40:08;4.09;51.15
67354;SHT30;54238;52.278;21.056;2023-04-06T02:42:40;4.07;51.22
67354;SHT30;54238;52.278;21.056;2023-04-06T02:45:12;4.09;51.24
67354;SHT30;54238;52.278;21.056;2023-04-06T02:47:44;4.10;51.39
67354;SHT30;54238;52.278;21.056;2023-04-06T02:50:11;4.07;51.48
67354;SHT30;54238;52.278;21.056;2023-04-06T02:52:38;4.05;51.54
67354;SHT30;54238;52.278;21.056;2023-04-06T02:55:07;4.01;51.72
67354;SHT30;54238;52.278;21.056;2023-04-06T02:57:36;3.97;51.81
67354;SHT30;54238;52.278;21.056;2023-04-06T03:00:08;3.94;51.96
67354;SHT30;54238;52.278;21.056;2023-04-06T03:02:36;3.88;52.11
67354;SHT30;54238;52.278;21.056;2023-04-06T03:05:03;3.85;52.30
67354;SHT30;54238;52.278;21.056;2023-04-06T03:07:31;3.83;52.34
67354;SHT30;54238;52.278;21.056;2023-04-06T03:10:00;3.82;52.45
67354;SHT30;54238;52.278;21.056;2023-04-06T03:12:30;3.81;52.65
67354;SHT30;54238;52.278;21.056;2023-04-06T03:15:00;3.79;52.77
67354;SHT30;54238;52.278;21.056;2023-04-06T03:17:27;3.78;52.92
67354;SHT30;54238;52.278;21.056;2023-04-06T03:20:00;3.78;53.08
67354;SHT30;54238;52.278;21.056;2023-04-06T03:22:31;3.75;53.29
67354;SHT30;54238;52.278;21.056;2023-04-06T03:25:00;3.73;53.42
67354;SHT30;54238;52.278;21.056;2023-04-06T03:27:30;3.69;53.60
67354;SHT30;54238;52.278;21.056;2023-04-06T03:29:59;3.70;53.65
67354;SHT30;54238;52.278;21.056;2023-04-06T03:32:26;3.68;53.77
67354;SHT30;54238;52.278;21.056;2023-04-06T03:34:56;3.68;53.80
67354;SHT30;54238;52.278;21.056;2023-04-06T03:37:26;3.66;53.80
67354;SHT30;54238;52.278;21.056;2023-04-06T03:39:55;3.65;53.80
67354;SHT30;54238;52.278;21.056;2023-04-06T03:42:22;3.61;53.91
67354;SHT30;54238;52.278;21.056;2023-04-06T03:44:49;3.61;54.02
67354;SHT30;54238;52.278;21.056;2023-04-06T03:47:26;3.59;54.18
67354;SHT30;54238;52.278;21.056;2023-04-06T03:49:55;3.58;54.30
67354;SHT30;54238;52.278;21.056;2023-04-06T03:52:22;3.56;54.24
67354;SHT30;54238;52.278;21.056;2023-04-06T03:54:52;3.51;54.44
67354;SHT30;54238;52.278;21.056;2023-04-06T03:57:19;3.49;54.52
67354;SHT30;54238;52.278;21.056;2023-04-06T03:59:46;3.49;54.66
67354;SHT30;54238;52.278;21.056;2023-04-06T04:02:20;3.49;54.72
67354;SHT30;54238;52.278;21.056;2023-04-06T04:04:49;3.51;54.89
67354;SHT30;54238;52.278;21.056;2023-04-06T04:07:17;3.50;55.11
67354;SHT30;54238;52.278;21.056;2023-04-06T04:09:43;3.52;55.13
67354;SHT30;54238;52.278;21.056;2023-04-06T04:12:11;3.54;55.19
67354;SHT30;54238;52.278;21.056;2023-04-06T04:14:38;3.56;55.35
67354;SHT30;54238;52.278;21.056;2023-04-06T04:17:09;3.52;55.53
67354;SHT30;54238;52.278;21.056;2023-04-06T04:19:39;3.49;55.58
67354;SHT30;54238;52.278;21.056;2023-04-06T04:22:08;3.46;55.68
67354;SHT30;54238;52.278;21.056;2023-04-06T04:24:40;3.49;55.72
67354;SHT30;54238;52.278;21.056;2023-04-06T04:27:07;3.49;55.68
67354;SHT30;54238;52.278;21.056;2023-04-06T04:29:39;3.50;55.65
67354;SHT30;54238;52.278;21.056;2023-04-06T04:32:10;3.49;55.79
67354;SHT30;54238;52.278;21.056;2023-04-06T04:34:39;3.49;55.88
67354;SHT30;54238;52.278;21.056;2023-04-06T04:37:07;3.47;56.06
67354;SHT30;54238;52.278;21.056;2023-04-06T04:39:36;3.47;56.17
67354;SHT30;54238;52.278;21.056;2023-04-06T04:42:08;3.47;56.32
67354;SHT30;54238;52.278;21.056;2023-04-06T04:44:42;3.45;56.47
67354;SHT30;54238;52.278;21.056;2023-04-06T04:47:19;3.47;56.62
67354;SHT30;54238;52.278;21.056;2023-04-06T04:49:46;3.52;56.63
67354;SHT30;54238;52.278;21.056;2023-04-06T04:52:18;3.57;56.62
67354;SHT30;54238;52.278;21.056;2023-04-06T04:54:47;3.59;56.66
67354;SHT30;54238;52.278;21.056;2023-04-06T04:57:17;3.61;56.55
67354;SHT30;54238;52.278;21.056;2023-04-06T04:59:46;3.61;56.64
67354;SHT30;54238;52.278;21.056;2023-04-06T05:02:18;3.65;56.61
67354;SHT30;54238;52.278;21.056;2023-04-06T05:04:47;3.66;56.51
67354;SHT30;54238;52.278;21.056;2023-04-06T05:07:17;3.70;56.31
67354;SHT30;54238;52.278;21.056;2023-04-06T05:09:47;3.75;56.17
67354;SHT30;54238;52.278;21.056;2023-04-06T05:12:15;3.78;56.10
67354;SHT30;54238;52.278;21.056;2023-04-06T05:14:45;3.81;56.08
67354;SHT30;54238;52.278;21.056;2023-04-06T05:17:12;3.80;56.04
67354;SHT30;54238;52.278;21.056;2023-04-06T05:19:46;3.78;56.32
67354;SHT30;54238;52.278;21.056;2023-04-06T05:22:20;3.82;56.26
67354;SHT30;54238;52.278;21.056;2023-04-06T05:24:51;3.90;56.07
67354;SHT30;54238;52.278;21.056;2023-04-06T05:27:18;3.98;55.86
67354;SHT30;54238;52.278;21.056;2023-04-06T05:29:45;4.03;55.88
67354;SHT30;54238;52.278;21.056;2023-04-06T05:32:15;4.07;55.93
67354;SHT30;54238;52.278;21.056;2023-04-06T05:34:42;4.14;55.76
67354;SHT30;54238;52.278;21.056;2023-04-06T05:37:09;4.21;55.61
67354;SHT30;54238;52.278;21.056;2023-04-06T05:39:44;4.28;55.52
67354;SHT30;54238;52.278;21.056;2023-04-06T05:42:11;4.34;55.28
67354;SHT30;54238;52.278;21.056;2023-04-06T05:44:43;4.41;55.23
67354;SHT30;54238;52.278;21.056;2023-04-06T05:47:10;4.48;54.79
67354;SHT30;54238;52.278;21.056;2023-04-06T05:49:41;4.56;54.61
67354;SHT30;54238;52.278;21.056;2023-04-06T05:52:09;4.66;54.38
67354;SHT30;54238;52.278;21.056;2023-04-06T05:54:36;4.77;53.73
67354;SHT30;54238;52.278;21.056;2023-04-06T05:57:06;4.84;53.16
67354;SHT30;54238;52.278;21.056;2023-04-06T05:59:33;4.90;52.88
67354;SHT30;54238;52.278;21.056;2023-04-06T06:02:02;4.95;52.62
67354;SHT30;54238;52.278;21.056;2023-04-06T06:04:35;4.99;52.65
67354;SHT30;54238;52.278;21.056;2023-04-06T06:07:07;5.06;52.69
67354;SHT30;54238;52.278;21.056;2023-04-06T06:09:34;5.16;52.01
67354;SHT30;54238;52.278;21.056;2023-04-06T06:12:05;5.19;51.74
67354;SHT30;54238;52.278;21.056;2023-04-06T06:14:32;5.22;51.60
67354;SHT30;54238;52.278;21.056;2023-04-06T06:16:59;5.30;51.34
67354;SHT30;54238;52.278;21.056;2023-04-06T06:19:29;5.39;50.82
67354;SHT30;54238;52.278;21.056;2023-04-06T06:22:00;5.43;50.53
67354;SHT30;54238;52.278;21.056;2023-04-06T06:24:31;5.45;50.68
67354;SHT30;54238;52.278;21.056;2023-04-06T06:27:00;5.47;50.53
67354;SHT30;54238;52.278;21.056;2023-04-06T06:29:32;5.48;50.16
67354;SHT30;54238;52.278;21.056;2023-04-06T06:32:01;5.49;50.24
67354;SHT30;54238;52.278;21.056;2023-04-06T06:34:31;5.53;50.26
67354;SHT30;54238;52.278;21.056;2023-04-06T06:37:00;5.59;50.08
67354;SHT30;54238;52.278;21.056;2023-04-06T06:39:30;5.61;49.99
67354;SHT30;54238;52.278;21.056;2023-04-06T06:41:57;5.60;49.94
67354;SHT30;54238;52.278;21.056;2023-04-06T06:44:29;5.64;49.97
67354;SHT30;54238;52.278;21.056;2023-04-06T06:46:59;5.68;49.97
67354;SHT30;54238;52.278;21.056;2023-04-06T06:49:28;5.71;49.93
67354;SHT30;54238;52.278;21.056;2023-04-06T06:51:58;5.72;50.08
67354;SHT30;54238;52.278;21.056;2023-04-06T06:54:32;5.76;50.29
67354;SHT30;54238;52.278;21.056;2023-04-06T06:56:59;5.78;50.15
67354;SHT30;54238;52.278;21.056;2023-04-06T06:59:30;5.82;50.18
67354;SHT30;54238;52.278;21.056;2023-04-06T07:02:00;5.89;50.11
67354;SHT30;54238;52.278;21.056;2023-04-06T07:04:30;5.97;49.73
67354;SHT30;54238;52.278;21.056;2023-04-06T07:07:05;6.05;49.59
67354;SHT30;54238;52.278;21.056;2023-04-06T07:09:35;6.11;49.46
67354;SHT30;54238;52.278;21.056;2023-04-06T07:12:06;6.19;49.45
67354;SHT30;54238;52.278;21.056;2023-04-06T07:14:36;6.36;49.46
67354;SHT30;54238;52.278;21.056;2023-04-06T07:17:05;6.47;49.05
67354;SHT30;54238;52.278;21.056;2023-04-06T07:19:32;6.57;48.89
67354;SHT30;54238;52.278;21.056;2023-04-06T07:22:02;6.64;48.72
67354;SHT30;54238;52.278;21.056;2023-04-06T07:24:31;6.63;48.63
67354;SHT30;54238;52.278;21.056;2023-04-06T07:27:01;6.60;48.71
67354;SHT30;54238;52.278;21.056;2023-04-06T07:29:32;6.56;48.56
67354;SHT30;54238;52.278;21.056;2023-04-06T07:32:04;6.44;48.86
67354;SHT30;54238;52.278;21.056;2023-04-06T07:34:36;6.44;49.03
67354;SHT30;54238;52.278;21.056;2023-04-06T07:37:05;6.48;49.13
67354;SHT30;54238;52.278;21.056;2023-04-06T07:39:36;6.44;49.38
67354;SHT30;54238;52.278;21.056;2023-04-06T07:42:03;6.42;49.50
67354;SHT30;54238;52.278;21.056;2023-04-06T07:44:34;6.44;49.79
67354;SHT30;54238;52.278;21.056;2023-04-06T07:47:05;6.44;49.91
67354;SHT30;54238;52.278;21.056;2023-04-06T07:49:35;6.41;49.86
67354;SHT30;54238;52.278;21.056;2023-04-06T07:52:03;6.45;49.94
67354;SHT30;54238;52.278;21.056;2023-04-06T07:54:30;6.49;49.84
67354;SHT30;54238;52.278;21.056;2023-04-06T07:56:57;6.51;49.67
67354;SHT30;54238;52.278;21.056;2023-04-06T07:59:25;6.54;49.71
67354;SHT30;54238;52.278;21.056;2023-04-06T08:01:55;6.50;49.80
67354;SHT30;54238;52.278;21.056;2023-04-06T08:04:22;6.50;49.87
67354;SHT30;54238;52.278;21.056;2023-04-06T08:06:51;6.54;50.09
67354;SHT30;54238;52.278;21.056;2023-04-06T08:09:20;6.61;50.29
67354;SHT30;54238;52.278;21.056;2023-04-06T08:11:50;6.70;50.44
67354;SHT30;54238;52.278;21.056;2023-04-06T08:14:50;6.79;50.68
67354;SHT30;54238;52.278;21.056;2023-04-06T08:17:19;6.83;50.97
67354;SHT30;54238;52.278;21.056;2023-04-06T08:19:51;6.84;51.24
67354;SHT30;54238;52.278;21.056;2023-04-06T08:22:23;6.87;51.36
67354;SHT30;54238;52.278;21.056;2023-04-06T08:24:53;6.95;51.32
67354;SHT30;54238;52.278;21.056;2023-04-06T08:27:20;6.95;51.39
67354;SHT30;54238;52.278;21.056;2023-04-06T08:29:47;6.98;51.35
67354;SHT30;54238;52.278;21.056;2023-04-06T08:32:18;7.04;51.02
67354;SHT30;54238;52.278;21.056;2023-04-06T08:34:45;7.01;51.00
67354;SHT30;54238;52.278;21.056;2023-04-06T08:37:13;7.00;50.89
67354;SHT30;54238;52.278;21.056;2023-04-06T08:39:45;7.04;50.84
67354;SHT30;54238;52.278;21.056;2023-04-06T08:42:18;7.03;50.90
67354;SHT30;54238;52.278;21.056;2023-04-06T08:44:50;6.98;51.15
67354;SHT30;54238;52.278;21.056;2023-04-06T08:47:19;6.90;51.33
67354;SHT30;54238;52.278;21.056;2023-04-06T08:49:48;6.84;51.46
67354;SHT30;54238;52.278;21.056;2023-04-06T08:52:21;6.81;51.80
67354;SHT30;54238;52.278;21.056;2023-04-06T08:54:56;6.77;51.88
67354;SHT30;54238;52.278;21.056;2023-04-06T08:57:23;6.70;52.54
67354;SHT30;54238;52.278;21.056;2023-04-06T08:59:52;6.69;52.94
67354;SHT30;54238;52.278;21.056;2023-04-06T09:02:25;6.73;53.21
67354;SHT30;54238;52.278;21.056;2023-04-06T09:04:56;6.79;53.39
67354;SHT30;54238;52.278;21.056;2023-04-06T09:07:24;6.76;53.83
67354;SHT30;54238;52.278;21.056;2023-04-06T09:09:55;6.69;54.26
67354;SHT30;54238;52.278;21.056;2023-04-06T09:15:01;6.64;54.56
67354;SHT30;54238;52.278;21.056;2023-04-06T09:17:31;6.60;55.01
67354;SHT30;54238;52.278;21.056;2023-04-06T09:20:08;6.56;55.24
67354;SHT30;54238;52.278;21.056;2023-04-06T09:22:39;6.50;55.08
67354;SHT30;54238;52.278;21.056;2023-04-06T09:25:18;6.47;55.09
67354;SHT30;54238;52.278;21.056;2023-04-06T09:27:59;6.48;54.76
67354;SHT30;54238;52.278;21.056;2023-04-06T09:30:36;6.53;54.61
67354;SHT30;54238;52.278;21.056;2023-04-06T09:33:22;6.56;54.60
67354;SHT30;54238;52.278;21.056;2023-04-06T09:35:55;6.56;54.90
67354;SHT30;54238;52.278;21.056;2023-04-06T09:46:47;6.53;57.10
67354;SHT30;54238;52.278;21.056;2023-04-06T09:49:14;6.47;57.32
67354;SHT30;54238;52.278;21.056;2023-04-06T09:52:03;6.41;57.76
67354;SHT30;54238;52.278;21.056;2023-04-06T09:54:36;6.37;58.10
67354;SHT30;54238;52.278;21.056;2023-04-06T10:02:58;6.01;58.96
67354;SHT30;54238;52.278;21.056;2023-04-06T10:08:11;5.84;59.14
67354;SHT30;54238;52.278;21.056;2023-04-06T10:10:42;5.81;59.50
67354;SHT30;54238;52.278;21.056;2023-04-06T10:13:10;5.84;59.82
67354;SHT30;54238;52.278;21.056;2023-04-06T10:15:41;5.86;59.80
67354;SHT30;54238;52.278;21.056;2023-04-06T10:18:09;5.83;60.17
67354;SHT30;54238;52.278;21.056;2023-04-06T10:20:41;5.75;60.17
67354;SHT30;54238;52.278;21.056;2023-04-06T10:25:53;5.72;60.59
67354;SHT30;54238;52.278;21.056;2023-04-06T10:28:30;5.68;60.97
67354;SHT30;54238;52.278;21.056;2023-04-06T10:31:04;5.66;61.28
67354;SHT30;54238;52.278;21.056;2023-04-06T10:33:33;5.57;61.74
67354;SHT30;54238;52.278;21.056;2023-04-06T10:39:13;5.36;62.32
67354;SHT30;54238;52.278;21.056;2023-04-06T10:41:51;5.26;62.59
67354;SHT30;54238;52.278;21.056;2023-04-06T10:44:22;5.21;62.94
67354;SHT30;54238;52.278;21.056;2023-04-06T10:46:58;5.19;63.19
67354;SHT30;54238;52.278;21.056;2023-04-06T10:49:31;5.24;63.25
67354;SHT30;54238;52.278;21.056;2023-04-06T10:52:04;5.29;63.55
67354;SHT30;54238;52.278;21.056;2023-04-06T10:54:35;5.30;63.52
67354;SHT30;54238;52.278;21.056;2023-04-06T10:57:10;5.30;63.72
67354;SHT30;54238;52.278;21.056;2023-04-06T10:59:41;5.36;63.49
67354;SHT30;54238;52.278;21.056;2023-04-06T11:02:19;5.37;63.69
67354;SHT30;54238;52.278;21.056;2023-04-06T11:04:57;5.29;63.38
67354;SHT30;54238;52.278;21.056;2023-04-06T11:07:26;5.25;63.80
67354;SHT30;54238;52.278;21.056;2023-04-06T11:10:00;5.21;64.25
67354;SHT30;54238;52.278;21.056;2023-04-06T11:12:32;5.15;64.25
67354;SHT30;54238;52.278;21.056;2023-04-06T11:15:00;5.12;64.43
67354;SHT30;54238;52.278;21.056;2023-04-06T11:17:33;5.17;64.40
67354;SHT30;54238;52.278;21.056;2023-04-06T11:20:03;5.19;64.46
67354;SHT30;54238;52.278;21.056;2023-04-06T11:22:49;5.13;64.33
67354;SHT30;54238;52.278;21.056;2023-04-06T11:25:20;5.09;64.46
67354;SHT30;54238;52.278;21.056;2023-04-06T11:27:50;5.07;64.59
67354;SHT30;54238;52.278;21.056;2023-04-06T11:30:20;5.08;64.70
67354;SHT30;54238;52.278;21.056;2023-04-06T11:32:47;5.12;64.79
67354;SHT30;54238;52.278;21.056;2023-04-06T11:35:21;5.17;65.03
67354;SHT30;54238;52.278;21.056;2023-04-06T11:37:54;5.23;64.85
67354;SHT30;54238;52.278;21.056;2023-04-06T11:40:22;5.25;64.69
67354;SHT30;54238;52.278;21.056;2023-04-06T11:42:57;5.36;64.56
67354;SHT30;54238;52.278;21.056;2023-04-06T11:45:25;5.47;63.96
67354;SHT30;54238;52.278;21.056;2023-04-06T11:48:17;5.55;63.58
67354;SHT30;54238;52.278;21.056;2023-04-06T11:50:54;5.63;63.44
67354;SHT30;54238;52.278;21.056;2023-04-06T11:53:29;5.67;63.24
67354;SHT30;54238;52.278;21.056;2023-04-06T11:55:58;5.69;63.02
67354;SHT30;54238;52.278;21.056;2023-04-06T11:58:27;5.72;63.03
67354;SHT30;54238;52.278;21.056;2023-04-06T12:01:02;5.75;62.99
67354;SHT30;54238;52.278;21.056;2023-04-06T12:03:31;5.79;62.68
67354;SHT30;54238;52.278;21.056;2023-04-06T12:06:01;5.81;62.34
67354;SHT30;54238;52.278;21.056;2023-04-06T12:08:29;5.83;62.31
67354;SHT30;54238;52.278;21.056;2023-04-06T12:10:58;5.87;62.33
67354;SHT30;54238;52.278;21.056;2023-04-06T12:13:28;5.88;62.21
67354;SHT30;54238;52.278;21.056;2023-04-06T12:15:57;5.86;62.15
67354;SHT30;54238;52.278;21.056;2023-04-06T12:18:24;5.88;62.22
67354;SHT30;54238;52.278;21.056;2023-04-06T12:20:56;5.90;62.25
67354;SHT30;54238;52.278;21.056;2023-04-06T12:23:30;5.95;62.12
67354;SHT30;54238;52.278;21.056;2023-04-06T12:25:59;5.95;62.02
67354;SHT30;54238;52.278;21.056;2023-04-06T12:28:29;5.98;61.99
67354;SHT30;54238;52.278;21.056;2023-04-06T12:30:58;5.95;61.92
67354;SHT30;54238;52.278;21.056;2023-04-06T12:33:30;5.91;62.01
67354;SHT30;54238;52.278;21.056;2023-04-06T12:35:58;5.93;62.01
67354;SHT30;54238;52.278;21.056;2023-04-06T12:38:24;5.95;62.04
67354;SHT30;54238;52.278;21.056;2023-04-06T12:40:54;5.96;61.94
67354;SHT30;54238;52.278;21.056;2023-04-06T12:43:28;5.97;62.06
67354;SHT30;54238;52.278;21.056;2023-04-06T12:45:57;5.95;62.25
67354;SHT30;54238;52.278;21.056;2023-04-06T12:48:26;5.93;62.26
67354;SHT30;54238;52.278;21.056;2023-04-06T12:50:59;5.97;62.12
67354;SHT30;54238;52.278;21.056;2023-04-06T12:53:33;5.98;62.43
67354;SHT30;54238;52.278;21.056;2023-04-06T12:56:13;5.96;62.40
67354;SHT30;54238;52.278;21.056;2023-04-06T12:58:44;5.94;62.47
67354;SHT30;54238;52.278;21.056;2023-04-06T13:01:19;5.96;62.52
67354;SHT30;54238;52.278;21.056;2023-04-06T13:03:47;5.97;62.40
67354;SHT30;54238;52.278;21.056;2023-04-06T13:06:19;5.96;62.31
67354;SHT30;54238;52.278;21.056;2023-04-06T13:08:51;5.97;62.58
67354;SHT30;54238;52.278;21.056;2023-04-06T13:11:21;5.96;62.69
67354;SHT30;54238;52.278;21.056;2023-04-06T13:13:50;5.93;62.93
67354;SHT30;54238;52.278;21.056;2023-04-06T13:16:19;5.93;63.16
67354;SHT30;54238;52.278;21.056;2023-04-06T13:18:51;5.91;63.29
67354;SHT30;54238;52.278;21.056;2023-04-06T13:21:18;5.88;63.53
67354;SHT30;54238;52.278;21.056;2023-04-06T13:23:48;5.87;63.49
67354;SHT30;54238;52.278;21.056;2023-04-06T13:26:17;5.85;63.66
67354;SHT30;54238;52.278;21.056;2023-04-06T13:28:48;5.83;64.10
67354;SHT30;54238;52.278;21.056;2023-04-06T13:31:16;5.82;64.33
67354;SHT30;54238;52.278;21.056;2023-04-06T13:33:47;5.84;64.45
67354;SHT30;54238;52.278;21.056;2023-04-06T13:36:17;5.84;64.84
67354;SHT30;54238;52.278;21.056;2023-04-06T13:38:49;5.83;65.11
67354;SHT30;54238;52.278;21.056;2023-04-06T13:41:22;5.83;65.19
67354;SHT30;54238;52.278;21.056;2023-04-06T13:43:52;5.82;65.16
67354;SHT30;54238;52.278;21.056;2023-04-06T13:46:19;5.81;64.94
67354;SHT30;54238;52.278;21.056;2023-04-06T13:48:49;5.82;65.07
67354;SHT30;54238;52.278;21.056;2023-04-06T13:51:18;5.84;64.96
67354;SHT30;54238;52.278;21.056;2023-04-06T13:53:46;5.84;64.93
67354;SHT30;54238;52.278;21.056;2023-04-06T13:56:19;5.82;64.91
67354;SHT30;54238;52.278;21.056;2023-04-06T13:58:52;5.74;65.33
67354;SHT30;54238;52.278;21.056;2023-04-06T14:01:23;5.69;65.50
67354;SHT30;54238;52.278;21.056;2023-04-06T14:03:55;5.69;65.77
67354;SHT30;54238;52.278;21.056;2023-04-06T14:06:27;5.68;66.08
67354;SHT30;54238;52.278;21.056;2023-04-06T14:08:57;5.69;66.09
67354;SHT30;54238;52.278;21.056;2023-04-06T14:11:27;5.70;66.25
67354;SHT30;54238;52.278;21.056;2023-04-06T14:13:55;5.71;66.47
67354;SHT30;54238;52.278;21.056;2023-04-06T14:16:22;5.72;66.59
67354;SHT30;54238;52.278;21.056;2023-04-06T14:18:54;5.73;66.77
67354;SHT30;54238;52.278;21.056;2023-04-06T14:21:28;5.72;67.13
67354;SHT30;54238;52.278;21.056;2023-04-06T14:23:56;5.72;67.46
67354;SHT30;54238;52.278;21.056;2023-04-06T14:26:47;5.77;67.45
67354;SHT30;54238;52.278;21.056;2023-04-06T14:29:19;5.82;67.33
67354;SHT30;54238;52.278;21.056;2023-04-06T14:31:53;5.88;67.17
67354;SHT30;54238;52.278;21.056;2023-04-06T14:34:29;5.89;67.23
67354;SHT30;54238;52.278;21.056;2023-04-06T14:36:58;5.88;67.24
67354;SHT30;54238;52.278;21.056;2023-04-06T14:39:27;5.91;66.96
67354;SHT30;54238;52.278;21.056;2023-04-06T14:41:57;5.95;66.77
67354;SHT30;54238;52.278;21.056;2023-04-06T14:44:29;6.00;66.53
67354;SHT30;54238;52.278;21.056;2023-04-06T14:46:56;6.05;66.52
67354;SHT30;54238;52.278;21.056;2023-04-06T14:49:27;6.03;66.55
67354;SHT30;54238;52.278;21.056;2023-04-06T14:51:54;6.00;66.81
67354;SHT30;54238;52.278;21.056;2023-04-06T14:54:22;5.98;66.93
67354;SHT30;54238;52.278;21.056;2023-04-06T14:56:49;5.99;66.94
67354;SHT30;54238;52.278;21.056;2023-04-06T14:59:16;6.02;66.86
67354;SHT30;54238;52.278;21.056;2023-04-06T15:01:43;6.05;66.79
67354;SHT30;54238;52.278;21.056;2023-04-06T15:04:12;6.09;66.76
67354;SHT30;54238;52.278;21.056;2023-04-06T15:07:02;6.12;66.57
67354;SHT30;54238;52.278;21.056;2023-04-06T15:09:35;6.12;66.52
67354;SHT30;54238;52.278;21.056;2023-04-06T15:12:05;6.14;66.55
67354;SHT30;54238;52.278;21.056;2023-04-06T15:14:36;6.14;66.65
67354;SHT30;54238;52.278;21.056;2023-04-06T15:17:03;6.13;66.67
67354;SHT30;54238;52.278;21.056;2023-04-06T15:19:33;6.13;66.65
67354;SHT30;54238;52.278;21.056;2023-04-06T15:22:02;6.15;66.66
67354;SHT30;54238;52.278;21.056;2023-04-06T15:24:32;6.17;66.59
67354;SHT30;54238;52.278;21.056;2023-04-06T15:26:59;6.18;66.47
67354;SHT30;54238;52.278;21.056;2023-04-06T15:29:27;6.14;66.53
67354;SHT30;54238;52.278;21.056;2023-04-06T15:31:58;6.10;66.84
67354;SHT30;54238;52.278;21.056;2023-04-06T15:34:30;6.09;67.00
67354;SHT30;54238;52.278;21.056;2023-04-06T15:37:02;6.06;67.03
67354;SHT30;54238;52.278;21.056;2023-04-06T15:39:39;6.03;67.10
67354;SHT30;54238;52.278;21.056;2023-04-06T15:42:11;6.01;67.13
67354;SHT30;54238;52.278;21.056;2023-04-06T15:44:42;6.01;67.12
67354;SHT30;54238;52.278;21.056;2023-04-06T15:47:12;6.01;67.10
67354;SHT30;54238;52.278;21.056;2023-04-06T15:49:39;5.98;67.34
67354;SHT30;54238;52.278;21.056;2023-04-06T15:52:09;5.98;67.43
67354;SHT30;54238;52.278;21.056;2023-04-06T15:54:39;5.96;67.55
67354;SHT30;54238;52.278;21.056;2023-04-06T15:57:10;5.95;67.47
67354;SHT30;54238;52.278;21.056;2023-04-06T15:59:43;5.97;67.42
67354;SHT30;54238;52.278;21.056;2023-04-06T16:02:17;5.95;67.56
67354;SHT30;54238;52.278;21.056;2023-04-06T16:04:45;5.95;67.60
67354;SHT30;54238;52.278;21.056;2023-04-06T16:07:15;5.97;67.73
67354;SHT30;54238;52.278;21.056;2023-04-06T16:09:44;5.96;67.93
67354;SHT30;54238;52.278;21.056;2023-04-06T16:12:13;5.92;68.28
67354;SHT30;54238;52.278;21.056;2023-04-06T16:14:41;5.89;68.60
67354;SHT30;54238;52.278;21.056;2023-04-06T16:17:11;5.86;68.75
67354;SHT30;54238;52.278;21.056;2023-04-06T16:19:44;5.83;68.96